Time;durP1;ratioP1;P1;durP2;ratioP2;P2;SDS_P1;SDS_P2;PMS_P1;PMS_P2;Temp;Humidity;BMP_temperature;BMP_pressure;BME280_temperature;BME280_humidity;BME280_pressure;Samples;Min_cycle;Max_cycle;Signal;HPM_P1;HPM_P2
2022/10/03 00:02:35;;;;;;;6.67;3.10;;;;;;;11.33;88.62;100014.55;1480410;86;21366;-78
2022/10/03 00:05:24;;;;;;;7.10;2.60;;;;;;;11.33;89.11;100010.57;1484633;87;21506;-77
2022/10/03 00:07:59;;;;;;;5.27;2.20;;;;;;;11.32;89.62;100019.52;1476757;88;21418;-78
2022/10/03 00:10:37;;;;;;;4.43;2.50;;;;;;;11.32;89.18;100018.20;1483457;87;21580;-78
2022/10/03 00:13:20;;;;;;;9.83;2.70;;;;;;;11.28;89.57;100017.20;1476925;87;21492;-79
2022/10/03 00:16:10;;;;;;;8.57;2.57;;;;;;;11.22;91.65;100007.25;1455864;89;21449;-79
2022/10/03 00:19:09;;;;;;;9.13;3.83;;;;;;;11.19;91.39;100012.02;1473786;88;21514;-79
2022/10/03 00:22:01;;;;;;;8.17;3.57;;;;;;;11.18;90.46;100003.25;1481188;87;22291;-78
2022/10/03 00:24:49;;;;;;;5.63;3.57;;;;;;;11.17;91.15;100002.93;1479218;88;21433;-79
2022/10/03 00:27:44;;;;;;;7.23;3.47;;;;;;;11.20;90.82;100005.25;1451637;89;22502;-78
2022/10/03 00:30:21;;;;;;;11.90;2.90;;;;;;;11.22;91.05;100009.91;1468609;88;22469;-80
2022/10/03 00:33:02;;;;;;;6.67;2.43;;;;;;;11.22;90.96;100004.60;1466853;87;21566;-80
2022/10/03 00:35:57;;;;;;;3.85;2.70;;;;;;;11.23;90.95;100008.08;1476183;87;21671;-80
2022/10/03 00:39:04;;;;;;;5.63;2.60;;;;;;;11.22;91.13;100012.55;1476084;88;22558;-79
2022/10/03 00:42:11;;;;;;;7.30;3.57;;;;;;;11.17;90.81;100015.34;1481870;87;21499;-78
2022/10/03 00:45:13;;;;;;;5.30;2.53;;;;;;;11.10;91.33;100025.73;1478168;87;21566;-78
2022/10/03 00:48:07;;;;;;;5.50;3.00;;;;;;;11.01;92.72;100035.97;1476578;87;21572;-78
2022/10/03 00:50:45;;;;;;;7.10;2.80;;;;;;;10.95;92.06;100032.64;1478100;87;21852;-78
2022/10/03 00:53:41;;;;;;;6.53;2.80;;;;;;;10.93;92.43;100029.31;1476655;87;21410;-78
2022/10/03 00:56:15;;;;;;;4.10;2.30;;;;;;;10.92;93.19;100026.34;1474262;87;22328;-78
2022/10/03 00:58:56;;;;;;;3.43;2.37;;;;;;;10.91;92.68;100017.58;1479422;87;21508;-78
2022/10/03 01:01:33;;;;;;;3.77;2.35;;;;;;;10.91;92.66;100020.23;1476523;87;22388;-78
2022/10/03 01:04:28;;;;;;;4.07;2.10;;;;;;;10.91;92.61;100004.34;1485618;87;21573;-78
2022/10/03 01:07:40;;;;;;;6.33;3.17;;;;;;;10.93;92.60;100002.84;1479573;87;22639;-79
2022/10/03 01:10:35;;;;;;;6.77;2.10;;;;;;;10.92;93.59;100009.95;1485484;87;21712;-79
2022/10/03 01:13:17;;;;;;;4.63;2.50;;;;;;;10.90;93.37;100008.45;1476344;87;21380;-79
2022/10/03 01:16:18;;;;;;;4.17;2.30;;;;;;;10.89;93.10;100014.75;1466999;87;22371;-78
2022/10/03 01:18:56;;;;;;;5.95;2.10;;;;;;;10.86;93.57;100013.75;1484638;87;21411;-77
2022/10/03 01:21:40;;;;;;;7.17;2.63;;;;;;;10.81;93.94;100020.33;1433935;89;22602;-78
2022/10/03 01:25:04;;;;;;;6.33;2.17;;;;;;;10.79;93.64;100011.74;1466271;89;21471;-79
2022/10/03 01:30:46;;;;;;;5.20;2.07;;;;;;;10.71;94.38;100007.73;1474415;86;22626;-78
2022/10/03 01:33:22;;;;;;;6.97;3.13;;;;;;;10.64;94.61;100004.55;1454224;89;22092;-78
2022/10/03 01:36:31;;;;;;;8.60;2.07;;;;;;;10.58;94.71;99999.39;1463361;88;21427;-78
2022/10/03 01:39:19;;;;;;;2.90;1.80;;;;;;;10.54;94.27;99998.88;1471406;88;21371;-78
2022/10/03 01:42:06;;;;;;;6.90;2.70;;;;;;;10.52;95.08;100011.43;1470134;88;21567;-78
2022/10/03 01:45:00;;;;;;;5.53;1.73;;;;;;;10.50;95.95;100014.75;1480879;88;21518;-78
2022/10/03 01:47:50;;;;;;;4.13;2.43;;;;;;;10.48;96.52;100015.89;1465938;88;21452;-78
2022/10/03 01:50:35;;;;;;;7.03;2.30;;;;;;;10.54;96.00;100029.81;1451945;88;22215;-78
2022/10/03 01:53:41;;;;;;;5.73;1.97;;;;;;;10.57;96.87;100034.78;1467834;88;22248;-78
2022/10/03 01:56:28;;;;;;;5.70;1.97;;;;;;;10.55;97.34;100036.75;1468570;88;22335;-78
2022/10/03 01:59:14;;;;;;;3.20;1.73;;;;;;;10.55;96.32;100042.87;1463340;88;21411;-78
2022/10/03 02:01:54;;;;;;;6.40;2.37;;;;;;;10.57;96.05;100044.05;1466495;88;21574;-77
2022/10/03 02:04:54;;;;;;;4.30;1.97;;;;;;;10.57;95.74;100036.94;1467479;89;22520;-78
2022/10/03 02:07:53;;;;;;;8.80;2.10;;;;;;;10.60;95.93;100032.65;1418919;91;22279;-78
2022/10/03 02:10:49;;;;;;;3.33;2.00;;;;;;;10.65;96.38;100026.89;1466929;88;22634;-77
2022/10/03 02:13:36;;;;;;;3.13;1.70;;;;;;;10.72;96.70;100023.94;1467998;88;21397;-77
2022/10/03 02:16:32;;;;;;;4.13;2.13;;;;;;;10.77;96.77;100025.62;1464110;88;21640;-77
2022/10/03 02:19:25;;;;;;;4.03;2.73;;;;;;;10.82;96.53;100023.33;1454608;88;21575;-79
2022/10/03 02:21:55;;;;;;;4.87;1.80;;;;;;;10.86;96.84;100022.52;1470165;88;21463;-77
2022/10/03 02:24:51;;;;;;;3.30;1.75;;;;;;;10.84;96.73;100029.28;1471625;88;21501;-78
2022/10/03 02:27:43;;;;;;;4.67;1.43;;;;;;;10.78;96.80;100026.45;1471591;89;21441;-77
2022/10/03 02:30:21;;;;;;;5.07;1.90;;;;;;;10.70;97.69;100035.17;1457969;88;21470;-78
2022/10/03 02:32:58;;;;;;;7.77;1.67;;;;;;;10.61;97.34;100040.09;1466430;89;21560;-79
2022/10/03 02:35:42;;;;;;;2.97;1.70;;;;;;;10.59;96.84;100039.44;1477196;88;21524;-79
2022/10/03 02:38:33;;;;;;;5.93;2.00;;;;;;;10.60;96.76;100047.20;1466298;88;21445;-78
2022/10/03 02:41:25;;;;;;;2.40;1.67;;;;;;;10.60;96.84;100049.02;1461879;88;21498;-78
2022/10/03 02:44:23;;;;;;;4.13;2.00;;;;;;;10.58;96.50;100053.64;1450123;90;21623;-79
2022/10/03 02:47:21;;;;;;;4.83;2.00;;;;;;;10.52;96.04;100055.59;1468403;89;21470;-78
2022/10/03 02:50:18;;;;;;;4.77;1.93;;;;;;;10.45;95.41;100062.50;1471874;88;21722;-78
2022/10/03 02:53:42;;;;;;;4.43;1.80;;;;;;;10.36;95.19;100067.73;1467397;88;21393;-79
2022/10/03 02:56:37;;;;;;;3.13;1.60;;;;;;;10.26;95.21;100057.70;1467525;88;21429;-79
2022/10/03 02:59:39;;;;;;;4.13;1.73;;;;;;;10.16;94.54;100070.20;1471856;88;21508;-78
2022/10/03 03:02:33;;;;;;;2.83;1.97;;;;;;;10.08;95.01;100073.60;1458076;89;21484;-79
2022/10/03 03:05:25;;;;;;;7.87;2.87;;;;;;;10.03;95.15;100079.83;1449648;89;21640;-79
2022/10/03 03:08:23;;;;;;;4.23;1.43;;;;;;;9.99;95.39;100078.48;1457447;89;22461;-79
2022/10/03 03:11:10;;;;;;;3.83;1.80;;;;;;;9.99;95.76;100072.38;1463039;87;21660;-79
2022/10/03 03:13:57;;;;;;;3.73;1.70;;;;;;;10.00;95.93;100072.70;1467478;87;22269;-79
2022/10/03 03:17:07;;;;;;;4.90;2.07;;;;;;;10.03;96.17;100081.66;1476268;87;21514;-78
2022/10/03 03:20:00;;;;;;;2.97;1.70;;;;;;;10.05;96.63;100082.34;1458121;89;21470;-78
2022/10/03 03:22:41;;;;;;;11.70;3.23;;;;;;;10.05;96.94;100088.95;1464832;89;21612;-78
2022/10/03 03:25:29;;;;;;;2.37;1.70;;;;;;;10.01;96.87;100093.72;1474203;88;22255;-79
2022/10/03 03:28:36;;;;;;;3.80;1.67;;;;;;;9.99;96.26;100090.39;1447866;87;21470;-79
2022/10/03 03:31:17;;;;;;;7.33;1.80;;;;;;;9.99;96.71;100091.70;1442732;89;22364;-78
2022/10/03 03:34:24;;;;;;;3.95;1.42;;;;;;;10.01;96.83;100089.75;1479759;86;21410;-77
2022/10/03 03:37:04;;;;;;;7.13;2.23;;;;;;;10.08;97.00;100086.83;1457199;87;21403;-77
2022/10/03 03:40:05;;;;;;;3.77;1.75;;;;;;;10.16;97.11;100090.03;1484326;87;21485;-77
2022/10/03 03:42:57;;;;;;;3.42;1.40;;;;;;;10.23;97.59;100085.78;1466705;87;22444;-77
2022/10/03 03:45:59;;;;;;;4.00;2.40;;;;;;;10.31;97.61;100087.20;1440938;90;21633;-77
2022/10/03 03:49:06;;;;;;;5.17;2.40;;;;;;;10.35;98.53;100085.07;1463432;89;21600;-77
2022/10/03 03:51:53;;;;;;;2.00;1.80;;;;;;;10.31;99.31;100096.95;1367346;93;22476;-77
2022/10/03 03:54:40;;;;;;;4.87;2.40;;;;;;;10.31;98.60;100096.45;1368529;96;21495;-77
2022/10/03 03:57:31;;;;;;;3.53;1.70;;;;;;;10.34;99.62;100097.47;1374122;95;21471;-77
2022/10/03 04:00:15;;;;;;;4.10;2.00;;;;;;;10.37;100.00;100095.84;1366513;95;21694;-77
2022/10/03 04:02:59;;;;;;;2.97;1.50;;;;;;;10.42;100.00;100090.59;1374609;95;21524;-77
2022/10/03 04:05:52;;;;;;;4.63;1.43;;;;;;;10.47;100.00;100097.55;1369305;95;21399;-77
2022/10/03 04:08:39;;;;;;;3.80;1.87;;;;;;;10.51;100.00;100093.12;1377521;94;21441;-77
2022/10/03 04:11:28;;;;;;;7.53;2.13;;;;;;;10.59;100.00;100103.77;1375479;94;22410;-78
2022/10/03 04:14:24;;;;;;;9.10;1.80;;;;;;;10.64;100.00;100095.34;1383789;93;22256;-79
2022/10/03 04:23:43;;;;;;;5.73;2.13;;;;;;;10.82;100.00;100099.28;1481085;86;21441;-78
2022/10/03 04:26:39;;;;;;;4.60;1.80;;;;;;;10.88;99.71;100099.15;1476745;86;21492;-80
2022/10/03 04:29:23;;;;;;;10.73;2.00;;;;;;;10.91;99.44;100086.91;1466407;88;21464;-80
2022/10/03 04:32:06;;;;;;;6.53;1.43;;;;;;;10.92;99.03;100073.50;1523636;85;22074;-80
2022/10/03 04:34:59;;;;;;;2.40;1.63;;;;;;;10.98;98.92;100078.66;1512020;85;21482;-80
2022/10/03 04:37:42;;;;;;;14.30;3.70;;;;;;;11.01;98.65;100082.31;1483975;86;21757;-80
2022/10/03 04:40:24;;;;;;;9.70;1.90;;;;;;;11.04;98.42;100083.31;1473941;88;21991;-80
2022/10/03 04:43:25;;;;;;;5.20;1.67;;;;;;;11.06;97.89;100090.62;1488297;86;21522;-79
2022/10/03 04:46:16;;;;;;;;;;;;;;;11.06;98.06;100087.47;1485834;87;21477;-81
2022/10/03 04:49:11;;;;;;;7.17;1.70;;;;;;;11.02;98.63;100098.56;1499832;86;20333;-79
2022/10/03 04:52:09;;;;;;;9.23;1.83;;;;;;;11.09;97.31;100094.27;1492154;86;21427;-80
2022/10/03 04:55:05;;;;;;;5.30;1.67;;;;;;;11.14;96.99;100095.13;1495408;86;21498;-78
2022/10/03 04:58:02;;;;;;;10.20;2.17;;;;;;;11.19;96.11;100104.26;1498264;86;21445;-78
2022/10/03 05:00:55;;;;;;;7.33;1.60;;;;;;;11.22;95.75;100099.11;1489399;85;21599;-78
2022/10/03 05:03:42;;;;;;;27.30;2.60;;;;;;;11.25;95.27;100106.77;1492654;86;21432;-79
2022/10/03 05:06:30;;;;;;;8.30;2.03;;;;;;;11.24;94.56;100101.94;1474700;88;21522;-82
2022/10/03 05:09:38;;;;;;;7.80;2.53;;;;;;;11.19;94.15;100098.96;1486357;87;21382;-85
2022/10/03 05:12:28;;;;;;;5.67;2.07;;;;;;;11.16;94.01;100100.58;1494446;86;21461;-79
2022/10/03 05:15:27;;;;;;;14.50;3.17;;;;;;;11.10;94.36;100109.16;1475068;88;21331;-82
2022/10/03 05:18:43;;;;;;;11.20;2.83;;;;;;;11.06;93.82;100102.03;1487413;87;21455;-81
2022/10/03 05:21:37;;;;;;;4.30;2.47;;;;;;;11.04;93.61;100117.75;1483433;86;21434;-79
2022/10/03 05:24:15;;;;;;;8.87;3.27;;;;;;;10.99;93.59;100111.62;1498467;86;21479;-79
2022/10/03 05:27:13;;;;;;;7.37;2.83;;;;;;;11.00;93.69;100107.97;1507971;86;21663;-80
2022/10/03 05:30:06;;;;;;;9.03;2.93;;;;;;;11.03;93.79;100108.98;1499430;86;21442;-79
2022/10/03 05:32:43;;;;;;;9.60;4.10;;;;;;;11.07;93.88;100101.03;1497591;86;21529;-79
2022/10/03 05:35:46;;;;;;;12.07;5.23;;;;;;;11.14;94.03;100105.23;1509289;86;21552;-79
2022/10/03 05:38:31;;;;;;;13.60;6.07;;;;;;;11.21;94.01;100104.91;1497568;86;21477;-78
2022/10/03 05:41:06;;;;;;;21.77;7.40;;;;;;;11.31;93.95;100108.77;1502575;86;21586;-79
2022/10/03 05:43:48;;;;;;;14.53;6.70;;;;;;;11.41;93.80;100112.61;1500576;86;21552;-79
2022/10/03 05:46:40;;;;;;;12.23;6.43;;;;;;;11.45;93.32;100116.58;1495530;86;21454;-79
2022/10/03 05:49:27;;;;;;;17.33;6.67;;;;;;;11.48;93.14;100125.06;1500056;86;21427;-78
2022/10/03 05:52:31;;;;;;;11.63;6.20;;;;;;;11.54;92.39;100119.61;1537889;86;21427;-79
2022/10/03 05:55:23;;;;;;;13.83;7.30;;;;;;;11.60;91.92;100120.29;1488593;87;21529;-79
2022/10/03 05:58:09;;;;;;;18.90;6.07;;;;;;;11.68;91.38;100115.48;1496232;87;21500;-78
2022/10/03 06:01:15;;;;;;;10.83;4.10;;;;;;;11.70;90.23;100116.98;1489631;86;22314;-79
2022/10/03 06:03:46;;;;;;;8.83;3.40;;;;;;;11.78;90.49;100124.64;1506107;86;21426;-79
2022/10/03 06:06:49;;;;;;;12.07;3.10;;;;;;;11.86;90.26;100124.19;1502991;87;21389;-79
2022/10/03 06:09:43;;;;;;;9.47;2.30;;;;;;;11.93;90.13;100121.70;1470942;87;21850;-79
2022/10/03 06:12:17;;;;;;;4.93;2.57;;;;;;;12.06;89.47;100123.38;1487573;87;22356;-79
2022/10/03 06:15:16;;;;;;;9.20;2.57;;;;;;;12.17;88.66;100128.87;1507917;87;21566;-79
2022/10/03 06:18:03;;;;;;;8.90;3.77;;;;;;;12.25;88.45;100130.68;1494311;86;21484;-85
2022/10/03 06:21:25;;;;;;;3.40;2.23;;;;;;;12.35;87.70;100137.99;1446314;89;21524;-86
2022/10/03 06:24:06;;;;;;;3.50;2.30;;;;;;;12.47;87.99;100139.30;1499246;87;22291;-86
2022/10/03 06:27:16;;;;;;;5.53;2.45;;;;;;;12.65;87.75;100154.54;1493226;86;21440;-87
2022/10/03 06:29:51;;;;;;;5.00;2.50;;;;;;;12.78;87.21;100157.20;1494664;86;21598;-85
2022/10/03 06:32:46;;;;;;;5.47;2.60;;;;;;;12.90;85.92;100155.84;1497038;86;22067;-87
2022/10/03 06:35:41;;;;;;;12.63;3.43;;;;;;;12.99;85.64;100156.15;1479169;88;21617;-88
2022/10/03 06:38:52;;;;;;;6.57;2.90;;;;;;;13.07;84.34;100155.31;1492825;87;21581;-87
2022/10/03 06:41:30;;;;;;;9.60;2.40;;;;;;;13.13;82.78;100155.13;1480438;87;21573;-85
2022/10/03 06:44:22;;;;;;;11.47;2.30;;;;;;;13.22;83.41;100167.39;1462736;87;21581;-88
2022/10/03 06:47:15;;;;;;;4.37;2.30;;;;;;;13.31;82.94;100167.71;1482695;87;22498;-86
2022/10/03 06:50:17;;;;;;;6.00;2.30;;;;;;;13.42;82.84;100163.35;1488521;87;22298;-87
2022/10/03 06:53:03;;;;;;;3.20;1.82;;;;;;;13.53;82.44;100157.66;1461024;87;22285;-87
2022/10/03 06:55:56;;;;;;;5.60;1.77;;;;;;;13.65;81.88;100158.61;1466268;87;22414;-81
2022/10/03 06:59:04;;;;;;;1.83;1.60;;;;;;;13.72;80.80;100160.88;1485226;87;21491;-81
2022/10/03 07:01:47;;;;;;;8.07;1.70;;;;;;;13.86;81.21;100168.11;1485614;87;22528;-81
2022/10/03 07:04:49;;;;;;;5.03;1.67;;;;;;;13.99;79.01;100167.55;1491803;87;21610;-81
2022/10/03 07:07:35;;;;;;;7.30;1.50;;;;;;;14.05;76.45;100168.69;1479974;87;21603;-83
2022/10/03 07:10:38;;;;;;;7.47;2.23;;;;;;;14.21;77.53;100172.06;1469266;87;21454;-82
2022/10/03 07:13:27;;;;;;;4.00;1.47;;;;;;;14.33;76.57;100167.66;1490178;87;21587;-82
2022/10/03 07:16:38;;;;;;;7.93;2.03;;;;;;;14.48;76.00;100169.03;1492627;87;22335;-82
2022/10/03 07:19:42;;;;;;;4.47;1.63;;;;;;;14.59;75.76;100170.80;1489001;87;21595;-83
2022/10/03 07:22:43;;;;;;;4.60;1.60;;;;;;;14.74;75.45;100173.48;1491773;87;21608;-83
2022/10/03 07:25:32;;;;;;;5.37;1.98;;;;;;;14.86;74.93;100184.02;1489407;87;21551;-81
2022/10/03 07:28:55;;;;;;;5.03;2.10;;;;;;;15.07;73.17;100187.30;1481987;87;21573;-87
2022/10/03 07:31:47;;;;;;;5.47;1.50;;;;;;;15.10;72.55;100184.78;1469338;87;21717;-87
2022/10/03 07:34:53;;;;;;;3.57;1.27;;;;;;;15.14;71.59;100198.59;1484503;87;21389;-79
2022/10/03 07:41:15;;;;;;;7.20;1.33;;;;;;;15.26;70.45;100190.45;1483766;87;22334;-81
2022/10/03 07:44:24;;;;;;;3.77;1.33;;;;;;;15.28;69.29;100184.44;1487772;87;22379;-81
2022/10/03 07:47:19;;;;;;;2.20;1.17;;;;;;;15.29;68.22;100186.08;1481188;87;21440;-81
2022/10/03 07:50:05;;;;;;;6.63;2.27;;;;;;;15.18;67.35;100187.36;1495989;87;21492;-81
2022/10/03 07:52:55;;;;;;;13.03;1.40;;;;;;;15.13;66.67;100177.75;1485681;87;21639;-80
2022/10/03 07:56:13;;;;;;;4.43;1.73;;;;;;;15.30;67.62;100188.55;1485631;87;21447;-83
2022/10/03 07:59:14;;;;;;;2.80;1.53;;;;;;;15.39;66.58;100185.79;1492367;87;21558;-82
2022/10/03 08:02:04;;;;;;;2.97;1.23;;;;;;;15.37;66.20;100193.17;1489136;87;21566;-90
2022/10/03 08:05:00;;;;;;;6.63;1.83;;;;;;;15.31;63.74;100196.89;1488377;87;21425;-91
2022/10/03 08:07:47;;;;;;;3.70;1.63;;;;;;;15.31;64.05;100192.06;1494630;87;21462;-87
2022/10/03 08:10:59;;;;;;;3.57;1.30;;;;;;;15.50;64.78;100194.66;1495278;87;21728;-88
2022/10/03 08:13:55;;;;;;;2.43;1.03;;;;;;;15.62;64.35;100193.68;1489278;87;21426;-90
2022/10/03 08:16:59;;;;;;;4.67;1.67;;;;;;;15.72;62.14;100179.59;1497301;87;21521;-88
2022/10/03 08:19:58;;;;;;;4.33;1.80;;;;;;;15.73;63.45;100184.72;1482927;87;21536;-89
2022/10/03 08:23:06;;;;;;;2.13;1.30;;;;;;;15.71;60.81;100170.77;1455402;87;21639;-90
2022/10/03 08:25:53;;;;;;;4.30;1.40;;;;;;;15.74;62.99;100175.72;1466022;87;21565;-90
2022/10/03 08:28:37;;;;;;;4.53;1.40;;;;;;;15.68;61.28;100172.47;1459858;87;21594;-89
2022/10/03 08:31:24;;;;;;;5.03;1.40;;;;;;;15.63;60.01;100181.50;1489264;87;21558;-87
2022/10/03 08:34:26;;;;;;;1.97;1.00;;;;;;;15.75;59.82;100170.70;1483930;87;21470;-89
2022/10/03 08:37:26;;;;;;;4.80;0.97;;;;;;;15.83;57.66;100166.28;1477979;87;22623;-89
2022/10/03 08:40:38;;;;;;;2.87;1.20;;;;;;;16.03;57.46;100169.98;1462222;87;21676;-91
2022/10/03 08:43:38;;;;;;;2.20;1.40;;;;;;;16.12;53.46;100159.50;1494818;87;21462;-90
2022/10/03 08:46:13;;;;;;;2.05;1.05;;;;;;;16.23;57.81;100163.00;1501351;87;21411;-94
2022/10/03 08:49:18;;;;;;;5.43;1.23;;;;;;;16.39;57.17;100162.41;1446637;89;22622;-93
2022/10/03 08:52:02;;;;;;;4.90;1.53;;;;;;;16.53;56.42;100164.18;1523782;85;21418;-92
2022/10/03 08:55:08;;;;;;;2.40;1.03;;;;;;;16.66;52.83;100157.62;1517294;85;21573;-94
2022/10/03 08:58:10;;;;;;;3.17;1.10;;;;;;;17.01;56.11;100152.34;1491086;85;21617;-93
2022/10/03 09:01:17;;;;;;;3.13;1.17;;;;;;;17.38;55.77;100150.28;1524364;84;21491;-93
2022/10/03 09:04:27;;;;;;;3.83;1.40;;;;;;;17.49;54.29;100150.20;1526636;85;21580;-93
2022/10/03 09:07:14;;;;;;;4.10;1.00;;;;;;;17.39;53.55;100146.57;1521261;85;22047;-94
2022/10/03 09:10:23;;;;;;;1.70;1.00;;;;;;;17.34;53.03;100152.50;1515096;85;21470;-93
2022/10/03 09:13:19;;;;;;;2.27;1.70;;;;;;;17.30;53.27;100152.60;1517875;84;21358;-94
2022/10/03 09:16:03;;;;;;;2.67;1.40;;;;;;;17.32;52.98;100163.08;1531525;85;21648;-93
2022/10/03 09:19:05;;;;;;;2.47;1.27;;;;;;;17.31;54.25;100158.25;1496932;87;22475;-91
2022/10/03 09:22:06;;;;;;;2.93;1.47;;;;;;;17.48;54.16;100152.06;1453592;90;21920;-95
2022/10/03 09:24:59;;;;;;;1.40;1.30;;;;;;;17.63;54.92;100151.09;1457927;89;21588;-94
2022/10/03 09:28:03;;;;;;;3.30;1.30;;;;;;;17.69;54.27;100147.09;1458030;89;21712;-88
2022/10/03 09:30:46;;;;;;;3.40;1.57;;;;;;;17.56;54.21;100143.86;1454170;89;22240;-91
2022/10/03 09:34:08;;;;;;;5.62;1.40;;;;;;;17.66;54.35;100146.16;1484164;88;21471;-84
2022/10/03 09:37:11;;;;;;;2.08;1.12;;;;;;;17.98;53.57;100139.30;1459038;88;21574;-92
2022/10/03 09:39:58;;;;;;;2.05;0.98;;;;;;;17.97;53.49;100146.17;1438217;90;22462;-92
2022/10/03 09:43:08;;;;;;;2.45;1.15;;;;;;;17.84;53.92;100148.32;1438191;90;22484;-85
2022/10/03 09:45:57;;;;;;;2.93;1.23;;;;;;;17.58;52.72;100136.47;1452077;88;21602;-84
2022/10/03 09:49:06;;;;;;;3.45;1.50;;;;;;;17.42;54.75;100148.84;1480748;88;21723;-83
2022/10/03 09:51:44;;;;;;;3.40;0.97;;;;;;;17.53;55.05;100149.62;1480054;88;21619;-86
2022/10/03 09:54:43;;;;;;;1.70;0.97;;;;;;;17.39;53.40;100152.44;1461638;88;21465;-88
2022/10/03 09:57:20;;;;;;;2.77;1.33;;;;;;;17.03;50.98;100151.64;1501484;86;21354;-84
2022/10/03 10:00:16;;;;;;;6.20;1.27;;;;;;;16.94;53.53;100151.97;1497335;86;21661;-88
2022/10/03 10:03:25;;;;;;;3.57;1.57;;;;;;;16.94;54.83;100151.45;1504272;86;21439;-83
2022/10/03 10:06:30;;;;;;;2.70;1.30;;;;;;;17.01;55.02;100149.66;1508376;85;21653;-81
2022/10/03 10:09:33;;;;;;;3.77;1.37;;;;;;;17.13;54.10;100145.41;1510664;86;21843;-83
2022/10/03 10:12:32;;;;;;;3.00;1.40;;;;;;;17.47;54.93;100146.41;1485878;87;21477;-84
2022/10/03 10:15:36;;;;;;;2.83;1.23;;;;;;;17.62;53.52;100142.24;1509508;86;22401;-87
2022/10/03 10:18:23;;;;;;;4.00;1.05;;;;;;;17.80;53.36;100139.03;1505781;86;21359;-87
2022/10/03 10:21:01;;;;;;;1.77;1.03;;;;;;;17.75;51.76;100138.28;1493306;86;22427;-87
2022/10/03 10:23:45;;;;;;;2.62;1.70;;;;;;;17.67;51.46;100141.66;1516951;85;21506;-87
2022/10/03 10:26:35;;;;;;;2.12;1.10;;;;;;;17.45;50.94;100142.28;1505616;86;22482;-86
2022/10/03 10:29:49;;;;;;;8.60;1.02;;;;;;;17.38;50.91;100139.58;1516228;86;21639;-86
2022/10/03 10:32:56;;;;;;;2.83;1.05;;;;;;;17.50;52.29;100130.47;1508159;85;21439;-87
2022/10/03 10:36:05;;;;;;;3.85;0.95;;;;;;;17.70;51.50;100131.87;1508872;85;21491;-86
2022/10/03 10:39:13;;;;;;;1.82;1.00;;;;;;;17.91;51.50;100125.05;1504125;85;21664;-87
2022/10/03 10:42:36;;;;;;;5.28;1.02;;;;;;;18.10;49.62;100127.98;1513488;85;21388;-86
2022/10/03 10:45:38;;;;;;;2.02;1.12;;;;;;;18.78;50.10;100128.61;1510353;85;21966;-86
2022/10/03 10:48:45;;;;;;;1.32;0.68;;;;;;;19.04;45.81;100124.23;1516623;85;21653;-87
2022/10/03 10:51:46;;;;;;;2.12;0.65;;;;;;;19.47;46.69;100135.75;1515453;85;22104;-86
2022/10/03 10:54:21;;;;;;;1.67;0.60;;;;;;;19.65;45.42;100117.59;1519965;85;21572;-84
2022/10/03 10:56:59;;;;;;;1.55;0.80;;;;;;;19.45;43.07;100121.71;1514659;85;21491;-84
2022/10/03 10:59:50;;;;;;;5.53;1.25;;;;;;;19.44;44.73;100119.55;1509978;86;22409;-84
2022/10/03 11:02:54;;;;;;;1.95;0.70;;;;;;;19.48;43.67;100117.26;1510527;85;22313;-83
2022/10/03 11:06:07;;;;;;;3.20;0.70;;;;;;;19.31;42.33;100109.71;1509452;85;21590;-87
2022/10/03 11:09:13;;;;;;;1.22;0.70;;;;;;;19.18;41.86;100107.06;1505585;85;21432;-84
2022/10/03 11:12:00;;;;;;;1.67;0.82;;;;;;;19.33;43.58;100106.31;1492851;86;22379;-84
2022/10/03 11:15:05;;;;;;;1.35;0.82;;;;;;;19.36;45.31;100104.54;1515248;85;21424;-86
2022/10/03 11:18:03;;;;;;;2.98;0.80;;;;;;;19.52;45.66;100099.70;1506741;85;21506;-87
2022/10/03 11:21:21;;;;;;;2.27;1.03;;;;;;;19.51;44.98;100096.73;1513412;85;21484;-87
2022/10/03 11:24:19;;;;;;;2.10;0.85;;;;;;;19.32;43.97;100097.11;1516346;85;21625;-87
2022/10/03 11:27:25;;;;;;;2.15;1.00;;;;;;;19.34;46.04;100093.70;1500889;86;21418;-87
2022/10/03 11:30:23;;;;;;;6.90;1.00;;;;;;;19.42;46.26;100093.96;1508476;85;21535;-86
2022/10/03 11:33:32;;;;;;;1.57;0.90;;;;;;;19.53;45.65;100090.61;1494606;85;22430;-86
2022/10/03 11:36:42;;;;;;;3.55;1.10;;;;;;;19.38;43.46;100082.31;1517198;85;21477;-86
2022/10/03 11:39:35;;;;;;;;;;;;;;;19.65;45.08;100072.84;1504759;85;21698;-87
2022/10/03 11:42:42;;;;;;;2.17;1.50;;;;;;;19.79;43.68;100075.74;1509079;86;20739;-87
2022/10/03 11:45:16;;;;;;;1.17;0.78;;;;;;;20.08;43.75;100075.31;1514810;85;21469;-86
2022/10/03 11:47:48;;;;;;;5.30;0.98;;;;;;;20.42;41.98;100072.66;1510870;85;21416;-87
2022/10/03 11:50:26;;;;;;;1.70;0.75;;;;;;;20.67;42.18;100062.73;1504371;86;21476;-87
2022/10/03 11:53:19;;;;;;;6.05;0.70;;;;;;;20.68;41.00;100053.61;1514798;85;21462;-87
2022/10/03 11:56:13;;;;;;;2.52;0.62;;;;;;;20.90;41.47;100051.31;1509264;85;23057;-86
2022/10/03 11:58:57;;;;;;;2.90;0.42;;;;;;;21.36;39.84;100047.75;1508661;85;21579;-87
2022/10/03 12:01:47;;;;;;;1.65;0.62;;;;;;;21.68;38.37;100052.40;1509376;86;21431;-87
2022/10/03 12:04:33;;;;;;;;;;;;;;;21.71;36.69;100047.08;1513624;85;21491;-86
2022/10/03 12:10:13;;;;;;;1.40;0.70;;;;;;;21.41;38.13;100043.89;1512124;86;21527;-86
2022/10/03 12:12:49;;;;;;;1.77;0.72;;;;;;;21.04;37.44;100043.91;1513285;86;22334;-86
2022/10/03 12:15:53;;;;;;;0.88;0.57;;;;;;;20.88;38.63;100049.89;1494667;86;21432;-87
2022/10/03 12:18:44;;;;;;;1.32;0.70;;;;;;;20.66;38.58;100047.66;1510375;85;22298;-87
2022/10/03 12:21:43;;;;;;;1.10;0.68;;;;;;;20.64;37.51;100037.63;1518456;86;21528;-86
2022/10/03 12:24:28;;;;;;;2.15;1.00;;;;;;;20.77;39.38;100037.19;1510912;85;22562;-87
2022/10/03 12:27:17;;;;;;;1.25;0.78;;;;;;;20.79;40.01;100037.78;1492953;86;21690;-85
2022/10/03 12:29:56;;;;;;;4.85;0.53;;;;;;;20.41;39.47;100044.15;1514961;85;21667;-87
2022/10/03 12:33:00;;;;;;;1.65;0.72;;;;;;;20.01;39.52;100044.48;1513675;85;21520;-85
2022/10/03 12:35:52;;;;;;;2.05;0.85;;;;;;;19.77;41.00;100049.63;1512776;85;22475;-86
2022/10/03 12:38:45;;;;;;;3.85;1.55;;;;;;;19.33;40.58;100047.28;1493895;86;21586;-86
2022/10/03 12:41:52;;;;;;;2.40;0.90;;;;;;;18.93;41.84;100046.59;1510834;85;21455;-87
2022/10/03 12:44:33;;;;;;;1.52;1.05;;;;;;;18.61;42.08;100046.95;1512695;86;22343;-86
2022/10/03 12:47:28;;;;;;;0.80;0.80;;;;;;;18.21;43.22;100048.34;1508393;85;22356;-87
2022/10/03 12:50:31;;;;;;;3.05;1.62;;;;;;;18.05;44.09;100049.59;1513797;85;21697;-86
2022/10/03 12:53:17;;;;;;;5.95;0.90;;;;;;;17.80;44.99;100048.84;1508974;86;21417;-85
2022/10/03 12:55:55;;;;;;;1.97;1.00;;;;;;;17.54;43.47;100045.56;1516092;85;21462;-85
2022/10/03 12:58:45;;;;;;;1.33;0.87;;;;;;;17.50;43.59;100047.53;1511277;85;22353;-85
2022/10/03 13:01:48;;;;;;;;;;;;;;;17.42;44.27;100048.53;1517016;86;21425;-86
2022/10/03 13:04:51;;;;;;;4.07;0.90;;;;;;;17.31;44.86;100057.13;1516388;86;20278;-86
2022/10/03 13:07:29;;;;;;;6.17;1.20;;;;;;;17.12;45.02;100070.23;1512330;86;21520;-86
2022/10/03 13:10:03;;;;;;;5.33;1.07;;;;;;;16.99;45.24;100068.83;1508256;86;22430;-87
2022/10/03 13:12:49;;;;;;;7.10;1.03;;;;;;;16.85;46.16;100085.30;1511659;86;22628;-85
2022/10/03 13:15:51;;;;;;;4.10;0.93;;;;;;;16.34;49.78;100114.08;1502180;86;21417;-85
2022/10/03 13:19:11;;;;;;;2.27;0.80;;;;;;;15.26;59.50;100148.61;1510698;85;21447;-85
2022/10/03 13:22:02;;;;;;;2.87;1.25;;;;;;;14.16;67.15;100178.42;1512820;85;21454;-84
2022/10/03 13:24:40;;;;;;;1.50;0.90;;;;;;;13.31;73.75;100185.81;1519940;86;21447;-83
2022/10/03 13:27:42;;;;;;;3.20;1.60;;;;;;;13.09;73.09;100160.79;1506542;86;21506;-83
2022/10/03 13:30:23;;;;;;;1.83;1.00;;;;;;;12.96;71.36;100151.18;1513002;85;21733;-83
2022/10/03 13:32:54;;;;;;;2.80;0.90;;;;;;;12.97;73.48;100129.42;1518712;86;21544;-83
2022/10/03 13:38:46;;;;;;;3.30;0.70;;;;;;;13.14;73.97;100087.19;1515661;86;21402;-83
2022/10/03 13:41:38;;;;;;;1.40;1.10;;;;;;;13.38;73.81;100080.13;1509861;85;22380;-83
2022/10/03 13:44:18;;;;;;;2.47;1.83;;;;;;;13.63;74.29;100078.17;1511307;86;21410;-83
2022/10/03 13:47:01;;;;;;;2.70;1.57;;;;;;;13.81;75.70;100082.72;1515489;85;21616;-82